Time;durP1;ratioP1;P1;durP2;ratioP2;P2;SDS_P1;SDS_P2;PMS_P1;PMS_P2;Temp;Humidity;BMP_temperature;BMP_pressure;BME280_temperature;BME280_humidity;BME280_pressure;Samples;Min_cycle;Max_cycle;Signal;HPM_P1;HPM_P2
2022/09/18 00:00:24;;;;;;;12.68;10.57;;;;;;;29.64;66.92;100848.50;5075183;28;70908;-37
2022/09/18 00:02:56;;;;;;;12.80;11.52;;;;;;;29.71;66.66;100849.34;5077035;28;66062;-40
2022/09/18 00:05:28;;;;;;;12.30;11.23;;;;;;;29.80;67.10;100870.50;5078852;27;71418;-40
2022/09/18 00:08:03;;;;;;;15.48;11.20;;;;;;;29.80;67.68;100865.09;5075601;28;67017;-40
2022/09/18 00:10:47;;;;;;;11.48;10.43;;;;;;;29.84;67.84;100885.28;5074970;27;70840;-40
2022/09/18 00:13:20;;;;;;;14.98;11.45;;;;;;;29.90;67.50;100886.28;5066806;28;66995;-39
2022/09/18 00:15:55;;;;;;;;;;;;;;;29.77;68.39;100889.84;5075405;28;70964;-38
2022/09/18 00:18:27;;;;;;;13.40;11.32;;;;;;;29.95;67.90;100885.63;5078582;28;66986;-37
2022/09/18 00:21:14;;;;;;;18.38;11.05;;;;;;;29.80;67.97;100865.09;5080429;28;70894;-37
2022/09/18 00:23:47;;;;;;;13.32;11.02;;;;;;;30.01;68.64;100887.50;5077838;28;67132;-43
2022/09/18 00:26:20;;;;;;;15.95;11.90;;;;;;;30.03;68.65;100882.69;5079989;28;70903;-37
2022/09/18 00:28:54;;;;;;;17.48;12.15;;;;;;;30.05;68.97;100886.03;5075499;28;66720;-37
2022/09/18 00:31:32;;;;;;;14.82;11.82;;;;;;;29.68;69.31;100818.16;5078499;27;68672;-39
2022/09/18 00:34:09;;;;;;;12.23;10.18;;;;;;;29.91;69.63;100868.19;5093211;27;67369;-38
2022/09/18 00:36:42;;;;;;;12.20;11.00;;;;;;;30.09;70.05;100898.09;5073733;28;70870;-39
2022/09/18 00:39:15;;;;;;;12.25;10.77;;;;;;;30.01;70.12;100884.81;5072118;28;67050;-38
2022/09/18 00:41:47;;;;;;;11.38;10.18;;;;;;;30.09;70.21;100900.78;5038273;28;69238;-39
2022/09/18 00:44:38;;;;;;;11.07;9.93;;;;;;;30.05;70.28;100903.06;5035909;28;66312;-38
2022/09/18 00:47:11;;;;;;;11.50;9.73;;;;;;;30.12;69.76;100904.94;5032841;28;70040;-39
2022/09/18 00:49:58;;;;;;;10.98;9.82;;;;;;;30.10;70.27;100907.84;5038023;28;66163;-37
2022/09/18 00:52:57;;;;;;;9.95;9.20;;;;;;;30.12;69.93;100910.34;5034171;28;71011;-39
2022/09/18 00:55:39;;;;;;;9.90;9.00;;;;;;;30.11;70.09;100905.97;5017898;28;65715;-38
2022/09/18 00:58:12;;;;;;;10.30;9.33;;;;;;;30.14;70.71;100906.38;5036013;28;71273;-40
2022/09/18 01:00:44;;;;;;;9.50;8.50;;;;;;;30.09;70.74;100906.19;5017629;28;66345;-37
2022/09/18 01:03:17;;;;;;;9.30;8.45;;;;;;;30.06;70.60;100898.50;5035998;28;70618;-38
2022/09/18 01:06:17;;;;;;;10.40;8.90;;;;;;;30.01;69.94;100903.72;5018500;28;66222;-37
2022/09/18 01:09:17;;;;;;;15.45;8.75;;;;;;;30.07;70.07;100902.88;5035247;28;71299;-38
2022/09/18 01:12:17;;;;;;;9.20;8.13;;;;;;;30.17;70.36;100919.50;5023045;28;66112;-39
2022/09/18 01:14:56;;;;;;;8.68;7.85;;;;;;;30.18;70.33;100913.03;5036871;28;69924;-38
2022/09/18 01:17:49;;;;;;;8.20;7.47;;;;;;;30.22;69.83;100914.28;5019542;28;66391;-39
2022/09/18 01:20:26;;;;;;;8.57;7.57;;;;;;;30.27;70.19;100917.16;5033193;28;69876;-39
2022/09/18 01:23:27;;;;;;;7.00;6.38;;;;;;;29.40;69.88;100773.31;5018664;28;65981;-39
2022/09/18 01:26:18;;;;;;;7.43;6.63;;;;;;;30.31;69.81;100909.44;5035476;28;70247;-39
2022/09/18 01:29:04;;;;;;;6.55;5.78;;;;;;;29.93;69.41;100847.19;5032908;28;66648;-38
2022/09/18 01:32:02;;;;;;;7.60;5.57;;;;;;;30.36;69.46;100901.50;5035155;28;70721;-38
2022/09/18 01:34:42;;;;;;;6.22;5.72;;;;;;;30.38;69.41;100906.72;5013987;28;66911;-38
2022/09/18 01:37:25;;;;;;;6.15;5.65;;;;;;;30.42;69.29;100913.34;5048940;28;71094;-37
2022/09/18 01:40:02;;;;;;;14.05;5.50;;;;;;;29.91;70.04;100814.09;5039116;28;67046;-37
2022/09/18 01:42:37;;;;;;;6.88;5.50;;;;;;;30.41;69.81;100887.34;5059563;28;70899;-39
2022/09/18 01:45:18;;;;;;;5.85;5.35;;;;;;;30.04;69.57;100827.56;5073776;28;65716;-37
2022/09/18 01:48:04;;;;;;;5.88;5.10;;;;;;;30.48;69.77;100888.13;5070821;28;70338;-38
2022/09/18 01:50:49;;;;;;;5.72;5.15;;;;;;;30.12;69.96;100824.59;5078673;27;66339;-37
2022/09/18 01:53:29;;;;;;;9.48;4.75;;;;;;;30.08;70.47;100812.53;5081010;28;70707;-38
2022/09/18 01:56:07;;;;;;;5.57;5.00;;;;;;;30.23;70.40;100836.66;5076407;28;66825;-40
2022/09/18 01:58:40;;;;;;;8.27;5.03;;;;;;;30.69;69.08;100889.66;5092348;27;70952;-38
2022/09/18 02:01:17;;;;;;;7.63;4.50;;;;;;;30.78;68.41;100890.22;5076615;28;66423;-39
2022/09/18 02:03:58;;;;;;;9.40;4.55;;;;;;;30.36;68.57;100811.38;5076978;28;70258;-38
2022/09/18 02:07:06;;;;;;;4.75;4.22;;;;;;;30.84;68.25;100889.34;5090880;27;66950;-38
2022/09/18 02:09:39;;;;;;;9.00;4.05;;;;;;;30.94;67.60;100895.13;5073397;28;70113;-40
2022/09/18 02:12:18;;;;;;;6.50;4.15;;;;;;;30.93;67.65;100891.59;5072435;28;66960;-38
2022/09/18 02:14:59;;;;;;;4.65;3.45;;;;;;;30.22;67.20;100762.75;5063078;28;70588;-39
2022/09/18 02:17:52;;;;;;;5.97;4.03;;;;;;;31.05;67.01;100902.53;5074767;28;67931;-38
2022/09/18 02:20:33;;;;;;;4.28;3.67;;;;;;;31.12;67.03;100913.31;5090229;27;70049;-37
2022/09/18 02:23:07;;;;;;;5.00;3.30;;;;;;;31.19;67.26;100930.34;5073754;28;66104;-38
2022/09/18 02:25:43;;;;;;;4.95;3.92;;;;;;;31.24;66.87;100913.44;5078280;28;70289;-38
2022/09/18 02:28:19;;;;;;;4.60;3.85;;;;;;;30.90;66.60;100858.72;5075372;28;65717;-37
2022/09/18 02:30:52;;;;;;;11.13;3.42;;;;;;;31.30;66.84;100912.53;5076733;28;70788;-37
2022/09/18 02:33:28;;;;;;;3.47;3.17;;;;;;;31.33;66.11;100906.66;5076984;28;65781;-38
2022/09/18 02:36:19;;;;;;;4.85;3.40;;;;;;;31.29;66.47;100908.19;5074241;28;70963;-37
2022/09/18 02:39:03;;;;;;;4.30;3.53;;;;;;;31.31;66.23;100911.47;5073779;28;66126;-38
2022/09/18 02:42:08;;;;;;;5.18;3.30;;;;;;;31.31;65.95;100903.34;5075486;28;70501;-37
2022/09/18 02:44:41;;;;;;;4.47;3.17;;;;;;;31.42;66.04;100916.19;5069586;28;67451;-39
2022/09/18 02:47:35;;;;;;;5.70;3.08;;;;;;;31.36;65.98;100914.38;5073779;28;70180;-38
2022/09/18 02:50:22;;;;;;;3.08;2.78;;;;;;;31.48;65.71;100917.19;5078193;28;67301;-38
2022/09/18 02:53:03;;;;;;;4.35;2.92;;;;;;;31.19;65.61;100861.78;5075832;28;70572;-38
2022/09/18 02:56:02;;;;;;;11.45;3.42;;;;;;;31.08;65.62;100845.19;5085744;27;66836;-38
2022/09/18 02:59:11;;;;;;;4.35;3.40;;;;;;;31.37;65.51;100913.31;5075444;28;70165;-38
2022/09/18 03:01:51;;;;;;;4.38;3.20;;;;;;;31.59;65.44;100917.31;5078234;28;66330;-38
2022/09/18 03:04:27;;;;;;;3.35;2.85;;;;;;;31.63;65.00;100908.72;5062463;28;70733;-38
2022/09/18 03:07:03;;;;;;;6.32;3.30;;;;;;;31.65;64.99;100915.56;5072297;28;67403;-38
2022/09/18 03:09:43;;;;;;;5.32;2.78;;;;;;;31.66;65.29;100902.84;5054891;28;69805;-39
2022/09/18 03:12:17;;;;;;;3.70;3.10;;;;;;;31.70;65.01;100906.75;5077794;28;67108;-38
2022/09/18 03:14:51;;;;;;;4.72;3.35;;;;;;;31.73;64.62;100904.44;5074906;28;70125;-37
2022/09/18 03:17:23;;;;;;;3.78;3.28;;;;;;;31.67;64.48;100885.50;5071511;28;66658;-37
2022/09/18 03:19:55;;;;;;;5.43;3.08;;;;;;;31.70;64.48;100883.16;5090359;27;70705;-39
2022/09/18 03:22:27;;;;;;;6.68;3.10;;;;;;;31.79;64.29;100897.28;5079274;28;66838;-37
2022/09/18 03:25:00;;;;;;;3.72;3.05;;;;;;;31.82;64.60;100894.94;5072614;28;70584;-39
2022/09/18 03:27:32;;;;;;;3.30;3.00;;;;;;;31.84;64.50;100891.97;5075355;27;66292;-37
2022/09/18 03:30:06;;;;;;;5.70;3.47;;;;;;;31.84;64.43;100881.13;5070258;28;70407;-39
2022/09/18 03:32:39;;;;;;;5.07;3.30;;;;;;;31.86;63.93;100889.88;5077610;28;66904;-38
2022/09/18 03:35:14;;;;;;;5.65;3.40;;;;;;;31.86;64.10;100881.72;5059636;28;70542;-39
2022/09/18 03:37:48;;;;;;;5.28;3.88;;;;;;;31.92;64.19;100888.97;5068556;28;66697;-39
2022/09/18 03:40:24;;;;;;;5.47;3.28;;;;;;;31.86;64.09;100875.47;5072887;28;70444;-39
2022/09/18 03:42:57;;;;;;;3.97;3.15;;;;;;;31.95;63.99;100888.53;5072850;27;66280;-38
2022/09/18 03:45:30;;;;;;;5.80;2.78;;;;;;;31.96;63.68;100887.50;5071594;28;71122;-38
2022/09/18 03:48:04;;;;;;;3.83;3.42;;;;;;;31.94;64.00;100876.03;5073979;28;66988;-40
2022/09/18 03:50:37;;;;;;;4.40;3.30;;;;;;;31.95;64.00;100882.28;5066687;28;70968;-38
2022/09/18 03:53:10;;;;;;;4.15;3.72;;;;;;;31.88;63.91;100879.63;5058549;28;66204;-37
2022/09/18 03:55:59;;;;;;;4.15;3.38;;;;;;;31.61;64.72;100860.94;5072781;28;70982;-38
2022/09/18 03:58:53;;;;;;;4.28;3.88;;;;;;;31.61;66.06;100870.97;5073417;28;66819;-40
2022/09/18 04:01:39;;;;;;;4.13;3.75;;;;;;;31.48;66.49;100854.84;5067820;28;70655;-37
2022/09/18 04:04:30;;;;;;;9.98;4.00;;;;;;;31.50;66.13;100842.72;5073456;27;66418;-38
2022/09/18 04:07:20;;;;;;;6.85;4.53;;;;;;;31.61;66.06;100850.09;5073371;28;70035;-45
2022/09/18 04:10:11;;;;;;;6.15;4.40;;;;;;;31.51;66.37;100817.28;5073555;27;67199;-39
2022/09/18 04:12:44;;;;;;;9.75;3.47;;;;;;;31.60;66.91;100843.03;5076425;27;70420;-37
2022/09/18 04:15:23;;;;;;;9.25;3.95;;;;;;;31.58;67.06;100839.69;5067800;28;66275;-38
2022/09/18 04:17:55;;;;;;;4.05;3.65;;;;;;;31.57;67.04;100827.22;5074072;27;70585;-38
2022/09/18 04:20:30;;;;;;;5.47;4.07;;;;;;;31.58;67.41;100820.72;5075914;28;67055;-38
2022/09/18 04:23:02;;;;;;;7.15;4.45;;;;;;;31.43;67.26;100795.88;5075067;28;71278;-39
2022/09/18 04:25:37;;;;;;;5.50;3.85;;;;;;;31.64;66.90;100824.41;5075355;28;66847;-39
2022/09/18 04:28:10;;;;;;;4.90;3.72;;;;;;;31.58;67.37;100814.47;5069505;28;69843;-38
2022/09/18 04:30:47;;;;;;;5.80;4.07;;;;;;;31.50;67.36;100799.34;5070129;28;67026;-40
2022/09/18 04:33:20;;;;;;;6.07;3.95;;;;;;;31.57;68.03;100808.22;5073842;28;70650;-38
2022/09/18 04:35:52;;;;;;;8.50;4.30;;;;;;;31.62;67.34;100810.25;5074311;27;66886;-38
2022/09/18 04:38:28;;;;;;;6.07;4.40;;;;;;;31.62;66.46;100807.53;5087776;27;69862;-38
2022/09/18 04:41:00;;;;;;;6.65;4.38;;;;;;;31.34;66.47;100757.41;5066779;28;67384;-39
2022/09/18 04:43:33;;;;;;;8.02;4.18;;;;;;;31.59;66.00;100786.28;5075327;27;71118;-38
2022/09/18 04:46:08;;;;;;;5.35;4.82;;;;;;;31.67;66.27;100787.88;5058117;28;66863;-37
2022/09/18 04:48:42;;;;;;;5.80;4.55;;;;;;;31.66;65.95;100780.81;5070760;27;70325;-38
2022/09/18 04:51:14;;;;;;;9.27;4.03;;;;;;;31.61;65.55;100762.50;5074102;28;65310;-38
2022/09/18 04:53:51;;;;;;;5.57;4.28;;;;;;;31.71;65.57;100768.22;5070972;28;70171;-39
2022/09/18 04:56:25;;;;;;;6.07;4.28;;;;;;;31.73;64.83;100773.41;5072764;28;66390;-38
2022/09/18 04:58:59;;;;;;;6.32;4.50;;;;;;;31.76;65.04;100770.22;5074360;28;70807;-38
2022/09/18 05:01:32;;;;;;;12.05;4.82;;;;;;;31.82;64.68;100759.31;5073693;28;66194;-37
2022/09/18 05:04:11;;;;;;;6.28;4.55;;;;;;;31.72;63.67;100726.47;5069752;28;69955;-38
2022/09/18 05:07:07;;;;;;;5.68;4.70;;;;;;;31.87;64.53;100755.88;5075604;28;66910;-40
2022/09/18 05:09:41;;;;;;;7.05;4.30;;;;;;;31.87;64.55;100742.31;5073203;28;70231;-37
2022/09/18 05:12:14;;;;;;;5.63;4.57;;;;;;;31.87;64.60;100731.47;5067532;28;67371;-37
2022/09/18 05:14:49;;;;;;;4.90;4.40;;;;;;;31.89;63.88;100723.94;5068888;27;71023;-38
2022/09/18 05:17:22;;;;;;;5.88;4.32;;;;;;;31.97;63.70;100726.34;5073520;28;66997;-38
2022/09/18 05:20:02;;;;;;;5.25;4.85;;;;;;;31.96;64.52;100722.00;5075710;28;70891;-38
2022/09/18 05:22:47;;;;;;;4.72;4.30;;;;;;;31.96;65.12;100703.00;5077357;28;67024;-41
2022/09/18 05:25:28;;;;;;;5.70;4.40;;;;;;;31.96;64.05;100705.72;5074674;28;70730;-39
2022/09/18 05:28:02;;;;;;;5.05;4.60;;;;;;;31.75;62.62;100698.06;5072182;28;66596;-39
2022/09/18 05:30:41;;;;;;;4.82;3.63;;;;;;;31.74;61.60;100696.44;5073095;28;69938;-40
2022/09/18 05:33:13;;;;;;;5.20;4.47;;;;;;;31.31;60.23;100637.75;5072461;27;66156;-39
2022/09/18 05:35:46;;;;;;;5.10;3.80;;;;;;;31.55;58.77;100682.91;5078081;27;70100;-39
2022/09/18 05:38:18;;;;;;;6.00;3.63;;;;;;;31.50;58.99;100676.53;5078337;27;66697;-38
2022/09/18 05:41:00;;;;;;;3.72;3.42;;;;;;;31.49;57.78;100678.41;5078056;27;70988;-38
2022/09/18 05:43:32;;;;;;;4.18;3.78;;;;;;;31.45;57.62;100665.53;5078025;28;66167;-39
2022/09/18 05:46:09;;;;;;;3.10;2.85;;;;;;;31.38;56.52;100660.22;5073288;28;69705;-39
2022/09/18 05:48:51;;;;;;;3.80;3.50;;;;;;;31.37;56.86;100653.13;5078057;28;66997;-40
2022/09/18 05:51:24;;;;;;;14.32;3.67;;;;;;;31.33;57.06;100647.31;5071939;28;71100;-39
2022/09/18 05:53:57;;;;;;;21.05;3.97;;;;;;;31.29;56.80;100639.88;5076295;28;67249;-39
2022/09/18 05:56:40;;;;;;;21.63;3.80;;;;;;;31.12;56.32;100616.13;5075275;27;69960;-40
2022/09/18 05:59:14;;;;;;;15.70;3.53;;;;;;;31.20;56.19;100608.72;5076299;28;66329;-38
2022/09/18 06:01:51;;;;;;;12.85;3.63;;;;;;;31.21;56.10;100618.53;5077086;28;70771;-37
2022/09/18 06:04:42;;;;;;;18.23;4.18;;;;;;;31.07;55.84;100607.84;5077171;28;67239;-41
2022/09/18 06:07:16;;;;;;;24.80;3.63;;;;;;;31.15;55.27;100602.13;5073174;28;70816;-39
2022/09/18 06:09:48;;;;;;;4.80;3.22;;;;;;;31.07;55.10;100586.19;5073681;28;65634;-38
2022/09/18 06:12:21;;;;;;;11.23;3.05;;;;;;;31.12;55.21;100591.75;5077062;28;70677;-39
2022/09/18 06:14:53;;;;;;;18.15;3.13;;;;;;;31.12;54.62;100583.59;5078754;28;66765;-38
2022/09/18 06:17:27;;;;;;;10.13;2.78;;;;;;;30.94;53.78;100556.53;5068259;28;71166;-40
2022/09/18 06:20:06;;;;;;;8.57;3.00;;;;;;;31.12;54.03;100574.63;5051780;28;66559;-38
2022/09/18 06:22:38;;;;;;;5.45;3.05;;;;;;;31.04;52.37;100570.38;5073017;28;70701;-39
2022/09/18 06:25:12;;;;;;;4.10;3.00;;;;;;;31.07;52.55;100569.91;5074846;28;67335;-38
2022/09/18 06:27:45;;;;;;;3.95;2.58;;;;;;;31.06;51.81;100565.53;5076581;27;70633;-38
2022/09/18 06:30:18;;;;;;;4.22;2.53;;;;;;;31.03;52.02;100560.59;5070417;28;66124;-40
2022/09/18 06:32:50;;;;;;;4.82;2.40;;;;;;;31.03;51.24;100560.59;5078355;28;70235;-38
2022/09/18 06:35:23;;;;;;;2.50;2.30;;;;;;;31.06;51.49;100553.88;5073949;28;66462;-39
2022/09/18 06:38:01;;;;;;;5.85;2.35;;;;;;;30.63;50.26;100493.38;5077331;28;70217;-39
2022/09/18 06:40:48;;;;;;;3.70;2.80;;;;;;;31.01;49.71;100557.31;5074859;28;67119;-39
2022/09/18 06:43:50;;;;;;;4.13;2.30;;;;;;;30.77;50.02;100507.56;5065651;27;70574;-38
2022/09/18 06:46:48;;;;;;;2.70;2.50;;;;;;;31.03;50.17;100544.31;5069546;27;66566;-40
2022/09/18 06:49:35;;;;;;;2.92;2.38;;;;;;;31.03;50.13;100529.97;5073882;28;71311;-39
2022/09/18 06:52:07;;;;;;;2.97;2.60;;;;;;;31.11;50.59;100535.88;5071702;27;66106;-38
2022/09/18 06:54:41;;;;;;;2.25;2.05;;;;;;;31.12;50.62;100526.72;5068974;28;71051;-39
2022/09/18 06:57:20;;;;;;;4.32;2.38;;;;;;;31.07;49.23;100517.63;5073963;27;66479;-39
2022/09/18 06:59:55;;;;;;;2.40;2.20;;;;;;;31.08;48.72;100514.66;5058732;28;70125;-38
2022/09/18 07:02:29;;;;;;;1.95;1.85;;;;;;;30.75;48.54;100455.53;5090349;27;66784;-38
2022/09/18 07:05:20;;;;;;;5.40;2.22;;;;;;;31.09;48.47;100510.06;5070447;28;71337;-41
2022/09/18 07:07:52;;;;;;;3.70;1.85;;;;;;;31.13;48.21;100506.69;5086501;27;66337;-37
2022/09/18 07:10:26;;;;;;;2.25;1.80;;;;;;;31.13;47.82;100517.53;5068447;28;70679;-38
2022/09/18 07:13:01;;;;;;;1.83;1.65;;;;;;;31.06;47.51;100500.53;5074656;28;66545;-38
2022/09/18 07:15:41;;;;;;;2.50;1.75;;;;;;;31.14;47.85;100502.09;5072290;28;70732;-41
2022/09/18 07:18:13;;;;;;;1.75;1.63;;;;;;;31.10;47.08;100490.88;5068667;27;65850;-38
2022/09/18 07:20:46;;;;;;;2.35;1.98;;;;;;;31.19;47.58;100509.53;5063649;28;70257;-38
2022/09/18 07:23:32;;;;;;;3.45;1.60;;;;;;;31.14;47.47;100496.66;5068224;28;66993;-40
2022/09/18 07:26:05;;;;;;;4.93;1.77;;;;;;;31.09;47.37;100494.66;5075247;28;70355;-38
2022/09/18 07:28:38;;;;;;;1.70;1.60;;;;;;;31.11;46.67;100497.94;5089437;27;66088;-40
2022/09/18 07:31:23;;;;;;;2.10;1.90;;;;;;;31.17;46.81;100501.63;5073675;28;69995;-38
2022/09/18 07:33:57;;;;;;;1.75;1.65;;;;;;;31.12;47.08;100501.47;5067974;28;65872;-39
2022/09/18 07:36:31;;;;;;;2.65;2.13;;;;;;;31.14;46.99;100497.50;5073007;28;70938;-38
2022/09/18 07:39:05;;;;;;;1.98;1.45;;;;;;;31.05;47.00;100477.22;5071837;28;67222;-37
2022/09/18 07:41:57;;;;;;;1.48;1.30;;;;;;;31.19;47.46;100479.72;5076611;28;69810;-39
2022/09/18 07:44:33;;;;;;;1.92;1.63;;;;;;;31.10;47.10;100463.81;5056246;28;65924;-40
2022/09/18 07:47:05;;;;;;;3.08;1.35;;;;;;;31.13;46.61;100485.00;5073358;27;71199;-39
2022/09/18 07:49:41;;;;;;;2.00;1.70;;;;;;;31.14;46.63;100492.06;5071045;28;66880;-39
2022/09/18 07:52:17;;;;;;;2.17;1.52;;;;;;;31.14;46.36;100491.25;5072090;28;70998;-41
2022/09/18 07:54:53;;;;;;;2.30;1.88;;;;;;;31.12;46.43;100488.78;5077375;28;67258;-37
2022/09/18 07:57:34;;;;;;;2.85;1.70;;;;;;;31.16;46.47;100494.56;5073074;28;71021;-39
2022/09/18 08:00:29;;;;;;;1.80;1.70;;;;;;;30.90;46.15;100452.44;5075806;28;65986;-40
2022/09/18 08:03:11;;;;;;;2.25;1.42;;;;;;;30.79;47.12;100428.84;5075016;28;71323;-41
2022/09/18 08:05:58;;;;;;;1.90;1.67;;;;;;;31.27;47.07;100495.66;5075022;28;66116;-38
2022/09/18 08:08:30;;;;;;;2.08;1.77;;;;;;;31.15;49.28;100482.91;5075011;28;71429;-39
2022/09/18 08:11:11;;;;;;;2.45;1.88;;;;;;;31.33;49.34;100505.56;5069146;28;66480;-38
2022/09/18 08:14:08;;;;;;;2.40;2.20;;;;;;;31.32;49.26;100493.06;5069464;27;70156;-37
2022/09/18 08:17:09;;;;;;;4.65;2.13;;;;;;;31.38;49.12;100498.41;5075084;27;66436;-39
2022/09/18 08:19:59;;;;;;;3.40;1.70;;;;;;;31.37;48.27;100485.06;5071662;28;71015;-38
2022/09/18 08:23:11;;;;;;;3.25;1.77;;;;;;;30.99;47.80;100407.72;5049319;27;66888;-40
2022/09/18 08:25:46;;;;;;;2.03;1.80;;;;;;;31.40;47.93;100468.38;5070875;28;70557;-38
2022/09/18 08:28:18;;;;;;;1.95;1.70;;;;;;;31.28;47.37;100440.38;5073029;27;66273;-40
2022/09/18 08:30:58;;;;;;;1.88;1.48;;;;;;;31.50;46.86;100487.56;5072006;28;70909;-38
2022/09/18 08:33:31;;;;;;;4.13;1.70;;;;;;;31.50;47.25;100474.03;5070221;28;66709;-39
2022/09/18 08:36:04;;;;;;;1.77;1.38;;;;;;;31.51;46.80;100486.53;5057165;28;69929;-38
2022/09/18 08:38:39;;;;;;;6.47;1.67;;;;;;;31.49;46.55;100472.38;5054223;28;67201;-37
2022/09/18 08:41:35;;;;;;;1.67;1.58;;;;;;;31.58;46.56;100476.38;5069588;28;70483;-38
2022/09/18 08:44:23;;;;;;;1.98;1.70;;;;;;;31.44;46.20;100452.47;5072340;28;65718;-41
2022/09/18 08:47:14;;;;;;;2.13;1.30;;;;;;;31.48;46.37;100451.78;5072765;28;70689;-38
2022/09/18 08:49:58;;;;;;;2.00;1.63;;;;;;;31.16;45.70;100397.03;5071246;28;65467;-39
2022/09/18 08:52:43;;;;;;;1.65;1.30;;;;;;;31.64;45.62;100473.81;5073533;28;70517;-39
2022/09/18 08:55:41;;;;;;;2.40;1.73;;;;;;;31.20;45.60;100387.34;5071770;27;65019;-39
2022/09/18 08:58:47;;;;;;;2.08;1.88;;;;;;;31.58;45.14;100452.00;5080786;27;70787;-39
2022/09/18 09:01:21;;;;;;;2.72;1.80;;;;;;;31.54;45.21;100423.72;5089811;27;67154;-39
2022/09/18 09:04:01;;;;;;;2.05;1.50;;;;;;;31.57;44.99;100431.38;5071189;28;70596;-38
2022/09/18 09:06:33;;;;;;;2.20;2.00;;;;;;;31.69;45.59;100438.69;5078330;28;66869;-39
2022/09/18 09:09:30;;;;;;;7.00;1.90;;;;;;;31.60;45.07;100451.75;5093991;27;69761;-40
2022/09/18 09:12:28;;;;;;;3.55;2.20;;;;;;;31.21;45.13;100421.53;5074462;28;66853;-38
2022/09/18 09:15:50;;;;;;;2.20;2.00;;;;;;;31.50;45.28;100520.09;5075483;28;70485;-39
2022/09/18 09:18:29;;;;;;;2.83;2.10;;;;;;;30.77;44.71;100401.16;5050252;28;66739;-39
2022/09/18 09:21:43;;;;;;;3.00;2.67;;;;;;;31.50;45.12;100560.78;5068766;28;70833;-38
2022/09/18 09:24:20;;;;;;;5.85;2.42;;;;;;;31.65;46.43;100568.47;5073101;28;66954;-38
2022/09/18 09:27:59;;;;;;;14.03;3.37;;;;;;;31.69;50.37;100595.94;5077693;28;71150;-40
2022/09/18 09:30:56;;;;;;;10.20;3.35;;;;;;;31.44;54.32;100523.75;5074904;28;67568;-38
2022/09/18 09:34:29;;;;;;;11.10;4.00;;;;;;;31.84;57.19;100612.59;5067687;27;69877;-39
2022/09/18 09:37:21;;;;;;;11.25;3.50;;;;;;;32.05;58.00;100614.78;5068828;28;66519;-38
2022/09/18 09:40:04;;;;;;;7.10;3.55;;;;;;;32.10;58.94;100619.50;5075965;27;70663;-38
2022/09/18 09:42:52;;;;;;;13.15;3.13;;;;;;;32.14;60.04;100630.72;5068832;28;67106;-35
2022/09/18 09:45:35;;;;;;;3.13;2.80;;;;;;;32.12;60.56;100621.97;5073376;28;67872;-39
2022/09/18 09:48:33;;;;;;;6.18;3.60;;;;;;;31.99;60.77;100585.88;5070516;28;67273;-38
2022/09/18 09:51:26;;;;;;;3.35;3.03;;;;;;;32.18;61.22;100615.59;5075712;27;70055;-41
2022/09/18 09:54:00;;;;;;;4.68;3.10;;;;;;;31.81;61.42;100545.25;5074921;28;66370;-38
2022/09/18 09:57:08;;;;;;;6.05;2.78;;;;;;;32.13;61.99;100602.75;5071689;28;69560;-37
2022/09/18 10:00:00;;;;;;;3.15;2.63;;;;;;;32.25;61.74;100589.19;5094344;27;66771;-38
2022/09/18 10:03:05;;;;;;;3.47;2.67;;;;;;;32.44;60.76;100596.13;5075539;28;70854;-38
2022/09/18 10:05:54;;;;;;;5.30;2.10;;;;;;;31.80;60.06;100456.81;5070375;28;66829;-38
2022/09/18 10:08:56;;;;;;;2.78;2.58;;;;;;;31.79;60.15;100456.00;5057770;28;71198;-37
2022/09/18 10:11:32;;;;;;;2.85;2.60;;;;;;;32.39;58.45;100530.03;5077658;28;66760;-38
2022/09/18 10:14:16;;;;;;;2.67;2.47;;;;;;;32.36;59.68;100523.19;5072679;28;70101;-37
2022/09/18 10:16:55;;;;;;;2.80;2.35;;;;;;;32.49;58.65;100541.97;5058584;28;66188;-42
2022/09/18 10:19:42;;;;;;;3.33;2.63;;;;;;;32.85;60.36;100601.66;5052858;28;70695;-39
2022/09/18 10:22:22;;;;;;;3.20;2.95;;;;;;;32.89;59.84;100611.78;5073165;28;66232;-39
2022/09/18 10:25:04;;;;;;;4.72;4.32;;;;;;;32.43;60.39;100552.91;5074653;28;70045;-36
2022/09/18 10:27:41;;;;;;;11.85;5.85;;;;;;;32.94;59.53;100636.34;5069792;28;65867;-37
2022/09/18 10:30:17;;;;;;;9.63;6.68;;;;;;;32.96;59.58;100635.25;5064499;28;70011;-38
2022/09/18 10:32:54;;;;;;;6.88;5.53;;;;;;;32.81;60.29;100619.47;5069048;28;67013;-38
2022/09/18 10:35:30;;;;;;;8.13;5.43;;;;;;;32.91;60.55;100647.69;5084302;27;69962;-38
2022/09/18 10:38:27;;;;;;;7.35;5.60;;;;;;;32.83;61.92;100650.78;5072958;27;66741;-37
2022/09/18 10:41:29;;;;;;;6.03;5.43;;;;;;;32.72;61.65;100638.03;5068856;28;70099;-38
2022/09/18 10:44:10;;;;;;;8.05;4.95;;;;;;;32.89;60.58;100646.28;5073830;28;66951;-38
2022/09/18 10:46:56;;;;;;;8.48;5.55;;;;;;;32.80;62.13;100656.69;5072740;28;71092;-40
2022/09/18 10:49:39;;;;;;;6.28;4.15;;;;;;;32.53;64.53;100655.53;5037986;28;66206;-38
2022/09/18 10:52:34;;;;;;;4.70;4.30;;;;;;;32.31;65.63;100657.97;5069479;28;70794;-39
2022/09/18 10:55:14;;;;;;;4.80;4.40;;;;;;;32.28;66.13;100670.13;5067883;28;66993;-37
2022/09/18 10:57:56;;;;;;;4.63;4.03;;;;;;;32.24;66.14;100669.78;5069772;28;70513;-39
2022/09/18 11:00:35;;;;;;;5.32;3.85;;;;;;;32.19;66.82;100679.69;5073115;28;67153;-38
2022/09/18 11:03:22;;;;;;;4.47;4.07;;;;;;;31.29;66.87;100559.41;5074769;28;70897;-38
2022/09/18 11:06:02;;;;;;;6.10;4.72;;;;;;;31.89;66.90;100668.88;5057616;28;66635;-40
2022/09/18 11:08:42;;;;;;;8.90;4.50;;;;;;;31.68;67.48;100632.25;5073531;28;70739;-37
2022/09/18 11:11:41;;;;;;;4.35;3.97;;;;;;;31.97;67.69;100703.84;5075373;27;66596;-37
2022/09/18 11:14:38;;;;;;;4.63;4.22;;;;;;;31.55;68.20;100644.94;5072409;28;70419;-40
2022/09/18 11:17:32;;;;;;;10.73;4.22;;;;;;;31.85;67.80;100698.34;5091648;27;67622;-39
2022/09/18 11:20:06;;;;;;;17.08;4.75;;;;;;;32.04;68.29;100726.28;5072517;28;69879;-39
2022/09/18 11:23:23;;;;;;;6.18;4.75;;;;;;;31.97;69.23;100723.63;5067822;28;66835;-37
2022/09/18 11:26:28;;;;;;;5.32;4.30;;;;;;;31.99;69.10;100737.00;5073486;28;70031;-38
2022/09/18 11:29:05;;;;;;;5.05;4.55;;;;;;;32.02;69.46;100741.94;5072902;28;66958;-39
2022/09/18 11:31:45;;;;;;;5.13;4.68;;;;;;;32.03;69.61;100744.41;5060098;28;71282;-40
2022/09/18 11:34:29;;;;;;;5.13;4.82;;;;;;;32.02;69.54;100756.34;5071715;28;67075;-42
2022/09/18 11:37:07;;;;;;;5.43;4.93;;;;;;;32.05;68.84;100769.44;5067018;28;70603;-37
2022/09/18 11:39:45;;;;;;;5.30;4.90;;;;;;;31.56;69.12;100691.84;5087289;27;66257;-37
2022/09/18 11:42:18;;;;;;;5.10;4.70;;;;;;;31.92;69.77;100758.78;5075749;28;70032;-37
2022/09/18 11:44:52;;;;;;;5.40;4.93;;;;;;;32.01;69.67;100772.84;5071408;28;66244;-38
2022/09/18 11:47:35;;;;;;;6.97;4.65;;;;;;;32.00;69.97;100782.88;5076532;28;70777;-38
2022/09/18 11:50:16;;;;;;;5.18;4.82;;;;;;;32.00;69.98;100801.84;5068115;28;67262;-39
2022/09/18 11:52:54;;;;;;;5.18;4.78;;;;;;;32.02;69.67;100807.06;5072993;28;69749;-39
2022/09/18 11:56:07;;;;;;;5.32;4.95;;;;;;;31.87;70.17;100798.47;5074628;28;66277;-39
2022/09/18 11:59:00;;;;;;;5.13;4.68;;;;;;;31.91;69.96;100805.97;5001764;28;70778;-38
2022/09/18 12:01:45;;;;;;;6.00;5.38;;;;;;;31.97;69.97;100810.47;5055052;28;67003;-39
2022/09/18 12:04:46;;;;;;;5.32;4.90;;;;;;;31.88;70.61;100794.72;5054435;27;70908;-38
2022/09/18 12:07:55;;;;;;;5.13;4.13;;;;;;;31.54;70.34;100740.91;5038985;28;66509;-40
2022/09/18 12:10:54;;;;;;;5.10;4.78;;;;;;;31.59;70.05;100743.78;5071550;28;70771;-40
2022/09/18 12:13:59;;;;;;;6.78;5.32;;;;;;;31.95;69.81;100812.56;5076210;27;66055;-39
2022/09/18 12:16:55;;;;;;;13.15;5.82;;;;;;;31.42;70.42;100736.47;5066878;28;69805;-39
2022/09/18 12:20:16;;;;;;;13.43;5.57;;;;;;;31.83;71.15;100809.78;5043221;28;66934;-38
2022/09/18 12:22:59;;;;;;;8.63;5.97;;;;;;;31.88;70.58;100795.53;5038804;28;70357;-39
2022/09/18 12:26:15;;;;;;;8.10;5.47;;;;;;;30.91;70.65;100668.06;5071849;27;65860;-39
2022/09/18 12:29:15;;;;;;;6.28;5.00;;;;;;;31.85;70.86;100827.72;5063445;28;70014;-41
2022/09/18 12:32:26;;;;;;;6.18;5.30;;;;;;;31.82;71.19;100837.16;5071826;28;66445;-38
2022/09/18 12:35:15;;;;;;;5.70;5.30;;;;;;;31.91;70.87;100859.34;5072149;27;69916;-38